createdAt,value
2023-01-13T00:00:42.444Z,1.30
2023-01-13T00:03:10.060Z,1.30
2023-01-13T00:05:37.942Z,1.27
2023-01-13T00:08:07.181Z,1.60
2023-01-13T00:10:35.219Z,1.20
2023-01-13T00:13:04.030Z,1.30
2023-01-13T00:15:31.669Z,1.60
2023-01-13T00:17:59.290Z,1.30
2023-01-13T00:20:26.854Z,1.03
2023-01-13T00:22:55.502Z,1.20
2023-01-13T00:25:24.352Z,1.60
2023-01-13T00:27:51.945Z,1.30
2023-01-13T00:30:20.432Z,1.40
2023-01-13T00:32:48.128Z,1.10
2023-01-13T00:35:15.814Z,1.17
2023-01-13T00:37:43.415Z,1.20
2023-01-13T00:40:11.580Z,1.30
2023-01-13T00:42:50.045Z,1.03
2023-01-13T00:45:17.765Z,1.10
2023-01-13T00:47:45.309Z,1.20
2023-01-13T00:50:12.986Z,1.07
2023-01-13T00:52:42.202Z,1.20
2023-01-13T00:55:10.160Z,1.67
2023-01-13T00:57:37.726Z,1.30
2023-01-13T01:00:07.114Z,1.40
2023-01-13T01:02:34.781Z,1.30
2023-01-13T01:05:02.410Z,1.20
2023-01-13T01:07:30.037Z,1.30
2023-01-13T01:09:57.638Z,1.37
2023-01-13T01:12:25.336Z,1.57
2023-01-13T01:14:52.910Z,1.40
2023-01-13T01:17:21.832Z,1.17
2023-01-13T01:19:50.069Z,1.30
2023-01-13T01:22:17.722Z,1.30
2023-01-13T01:24:45.444Z,1.17
2023-01-13T01:27:13.041Z,1.07
2023-01-13T01:29:40.774Z,1.40
2023-01-13T01:32:08.358Z,1.50
2023-01-13T01:34:39.007Z,1.30
2023-01-13T01:37:06.592Z,1.40
2023-01-13T01:39:34.170Z,1.37
2023-01-13T01:42:11.586Z,1.60
2023-01-13T01:44:53.294Z,1.20
2023-01-13T01:47:21.075Z,1.10
2023-01-13T01:49:50.041Z,1.10
2023-01-13T01:52:19.210Z,1.07
2023-01-13T01:54:49.021Z,1.50
2023-01-13T01:57:21.426Z,1.13
2023-01-13T01:59:49.736Z,1.00
2023-01-13T02:02:17.590Z,1.30
2023-01-13T02:04:50.952Z,1.20
2023-01-13T02:07:21.639Z,1.10
2023-01-13T02:09:49.622Z,1.37
2023-01-13T02:12:27.225Z,1.07
2023-01-13T02:14:54.821Z,1.00
2023-01-13T02:17:29.474Z,1.10
2023-01-13T02:20:08.371Z,1.73
2023-01-13T02:22:45.920Z,1.00
2023-01-13T02:25:21.295Z,1.03
2023-01-13T02:27:54.498Z,1.03
2023-01-13T02:30:38.076Z,1.00
2023-01-13T02:33:11.777Z,1.13
2023-01-13T02:35:45.036Z,1.03
2023-01-13T02:38:14.202Z,0.80
2023-01-13T02:40:44.164Z,1.10
2023-01-13T02:43:23.668Z,1.00
2023-01-13T02:45:54.543Z,0.93
2023-01-13T02:48:23.852Z,1.17
2023-01-13T02:50:54.583Z,0.93
2023-01-13T02:53:24.740Z,1.30
2023-01-13T02:55:54.136Z,0.97
2023-01-13T02:58:23.477Z,1.20
2023-01-13T03:00:51.242Z,0.97
2023-01-13T03:03:20.249Z,1.07
2023-01-13T03:05:49.087Z,1.00
2023-01-13T03:08:23.964Z,0.90
2023-01-13T03:10:57.672Z,1.00
2023-01-13T03:13:30.407Z,1.10
2023-01-13T03:16:01.807Z,1.10
2023-01-13T03:18:36.800Z,1.10
2023-01-13T03:21:06.879Z,1.00
2023-01-13T03:23:37.410Z,1.23
2023-01-13T03:26:08.518Z,1.10
2023-01-13T03:28:41.096Z,1.17
2023-01-13T03:31:11.822Z,1.10
2023-01-13T03:33:45.307Z,0.90
2023-01-13T03:36:14.935Z,0.90
2023-01-13T03:38:43.719Z,1.00
2023-01-13T03:41:14.389Z,1.00
2023-01-13T03:43:53.719Z,0.90
2023-01-13T03:46:24.741Z,0.97
2023-01-13T03:48:54.465Z,1.07
2023-01-13T03:51:23.391Z,1.00
2023-01-13T03:53:53.419Z,1.00
2023-01-13T03:56:25.486Z,0.83
2023-01-13T03:58:54.694Z,1.03
2023-01-13T04:01:25.503Z,0.80
2023-01-13T04:03:57.656Z,1.03
2023-01-13T04:06:32.022Z,1.13
2023-01-13T04:09:03.427Z,1.17
2023-01-13T04:11:34.117Z,1.00
2023-01-13T04:14:03.511Z,1.10
2023-01-13T04:16:31.259Z,0.90
2023-01-13T04:19:00.107Z,1.03
2023-01-13T04:21:27.733Z,0.90
2023-01-13T04:23:55.715Z,0.90
2023-01-13T04:26:24.319Z,0.87
2023-01-13T04:28:54.615Z,1.10
2023-01-13T04:31:22.347Z,1.03
2023-01-13T04:33:49.956Z,0.93
2023-01-13T04:36:19.555Z,0.80
2023-01-13T04:38:47.141Z,0.80
2023-01-13T04:41:14.716Z,0.83
2023-01-13T04:43:42.390Z,1.10
2023-01-13T04:46:10.154Z,0.83
2023-01-13T04:48:37.745Z,1.10
2023-01-13T04:51:05.460Z,1.10
2023-01-13T04:53:34.330Z,1.00
2023-01-13T04:56:02.025Z,1.10
2023-01-13T04:58:29.728Z,1.33
2023-01-13T05:00:57.395Z,1.23
2023-01-13T05:03:26.713Z,1.00
2023-01-13T05:05:54.422Z,1.20
2023-01-13T05:08:21.975Z,1.20
2023-01-13T05:10:50.840Z,0.93
2023-01-13T05:13:28.017Z,1.17
2023-01-13T05:16:06.869Z,1.00
2023-01-13T05:18:34.756Z,1.17
2023-01-13T05:21:02.312Z,1.33
2023-01-13T05:23:39.935Z,1.20
2023-01-13T05:26:09.012Z,1.13
2023-01-13T05:28:36.637Z,1.07
2023-01-13T05:31:04.280Z,0.93
2023-01-13T05:33:33.699Z,1.03
2023-01-13T05:36:03.252Z,1.00
2023-01-13T05:38:30.929Z,1.47
2023-01-13T05:41:08.339Z,1.10
2023-01-13T05:43:37.260Z,1.27
2023-01-13T05:46:06.781Z,1.20
2023-01-13T05:48:35.451Z,1.40
2023-01-13T05:51:03.961Z,1.10
2023-01-13T05:53:32.067Z,1.43
2023-01-13T05:56:00.252Z,1.10
2023-01-13T05:58:28.590Z,1.10
2023-01-13T06:01:02.193Z,1.17
2023-01-13T06:03:29.923Z,1.47
2023-01-13T06:05:59.279Z,1.23
2023-01-13T06:08:27.209Z,1.27
2023-01-13T06:10:55.042Z,1.30
2023-01-13T06:13:23.126Z,1.20
2023-01-13T06:15:50.718Z,1.03
2023-01-13T06:18:19.680Z,1.00
2023-01-13T06:20:47.644Z,1.07
2023-01-13T06:23:15.256Z,1.00
2023-01-13T06:25:45.475Z,0.93
2023-01-13T06:28:13.124Z,1.30
2023-01-13T06:30:42.390Z,1.50
2023-01-13T06:33:12.325Z,1.20
2023-01-13T06:35:42.491Z,1.30
2023-01-13T06:38:11.505Z,1.47
2023-01-13T06:40:39.161Z,1.60
2023-01-13T06:43:17.632Z,1.70
2023-01-13T06:45:47.860Z,1.30
2023-01-13T06:48:16.401Z,1.17
2023-01-13T06:50:45.293Z,0.90
2023-01-13T06:53:12.935Z,1.30
2023-01-13T06:55:40.600Z,1.30
2023-01-13T06:58:08.343Z,1.30
2023-01-13T07:00:37.538Z,1.40
2023-01-13T07:03:07.390Z,1.40
2023-01-13T07:05:35.052Z,1.63
2023-01-13T07:08:04.205Z,1.57
2023-01-13T07:10:31.881Z,1.87
2023-01-13T07:13:10.832Z,1.40
2023-01-13T07:15:38.494Z,1.70
2023-01-13T07:18:06.288Z,1.40
2023-01-13T07:20:33.898Z,1.40
2023-01-13T07:23:01.554Z,1.57
2023-01-13T07:25:32.361Z,1.50
2023-01-13T07:28:00.034Z,1.30
2023-01-13T07:30:27.717Z,1.10
2023-01-13T07:32:55.332Z,1.30
2023-01-13T07:35:23.473Z,1.07
2023-01-13T07:37:51.281Z,1.40
2023-01-13T07:40:18.948Z,1.30
2023-01-13T07:42:56.407Z,1.30
2023-01-13T07:45:24.103Z,1.90
2023-01-13T07:47:52.669Z,1.27
2023-01-13T07:50:21.035Z,1.57
2023-01-13T07:52:48.690Z,1.50
2023-01-13T07:55:16.503Z,2.00
2023-01-13T07:57:44.095Z,2.10
2023-01-13T08:00:13.663Z,2.67
2023-01-13T08:02:41.353Z,3.67
2023-01-13T08:05:09.476Z,2.73
2023-01-13T08:07:37.237Z,2.00
2023-01-13T08:10:04.976Z,3.30
2023-01-13T08:12:54.381Z,2.23
2023-01-13T08:15:26.169Z,2.33
2023-01-13T08:17:53.764Z,1.10
2023-01-13T08:20:21.342Z,1.17
2023-01-13T08:22:48.966Z,1.40
2023-01-13T08:25:17.346Z,1.10
2023-01-13T08:27:44.945Z,0.90
2023-01-13T08:30:12.721Z,0.90
2023-01-13T08:32:44.357Z,1.00
2023-01-13T08:35:12.106Z,1.20
2023-01-13T08:37:39.884Z,1.00
2023-01-13T08:40:08.087Z,1.00
2023-01-13T08:42:35.704Z,1.20
2023-01-13T08:45:03.905Z,1.43
2023-01-13T08:47:31.490Z,1.33
2023-01-13T08:50:00.455Z,1.27
2023-01-13T08:52:28.078Z,1.60
2023-01-13T08:54:55.685Z,1.70
2023-01-13T08:57:23.285Z,1.60
2023-01-13T08:59:50.993Z,2.23
2023-01-13T09:02:19.965Z,1.40
2023-01-13T09:04:48.317Z,1.47
2023-01-13T09:07:17.663Z,1.47
2023-01-13T09:09:45.337Z,1.90
2023-01-13T09:12:23.724Z,1.77
2023-01-13T09:14:51.591Z,1.97
2023-01-13T09:17:19.451Z,2.03
2023-01-13T09:19:47.123Z,1.70
2023-01-13T09:22:15.492Z,1.60
2023-01-13T09:24:44.669Z,1.40
2023-01-13T09:27:13.120Z,1.70
2023-01-13T09:29:40.735Z,1.73
2023-01-13T09:32:08.369Z,1.70
2023-01-13T09:34:45.045Z,1.47
2023-01-13T09:37:12.809Z,1.83
2023-01-13T09:39:40.700Z,1.87
2023-01-13T09:42:24.613Z,1.47
2023-01-13T09:44:57.127Z,1.43
2023-01-13T09:47:27.785Z,1.47
2023-01-13T09:49:56.893Z,1.60
2023-01-13T09:52:26.915Z,1.33
2023-01-13T09:54:56.690Z,2.07
2023-01-13T09:57:27.562Z,1.63
2023-01-13T09:59:55.246Z,2.10
2023-01-13T10:02:30.068Z,1.77
2023-01-13T10:05:07.719Z,1.70
2023-01-13T10:07:37.307Z,1.73
2023-01-13T10:10:09.191Z,1.60
2023-01-13T10:12:48.419Z,1.52
2023-01-13T10:15:16.662Z,1.60
2023-01-13T10:17:48.396Z,1.67
2023-01-13T10:20:19.522Z,1.38
2023-01-13T10:22:51.893Z,1.27
2023-01-13T10:25:23.189Z,1.08
2023-01-13T10:27:53.734Z,1.00
2023-01-13T10:30:23.119Z,1.50
2023-01-13T10:32:53.315Z,1.17
2023-01-13T10:35:44.102Z,1.17
2023-01-13T10:38:16.635Z,1.10
2023-01-13T10:40:48.610Z,1.02
2023-01-13T10:43:17.821Z,0.80
2023-01-13T10:45:52.487Z,0.82
2023-01-13T10:48:20.097Z,0.83
2023-01-13T10:50:49.395Z,1.10
2023-01-13T10:53:18.222Z,0.97
2023-01-13T10:55:58.674Z,1.07
2023-01-13T10:58:27.799Z,1.03
2023-01-13T11:01:03.663Z,1.38
2023-01-13T11:03:41.211Z,1.08
2023-01-13T11:06:09.771Z,1.13
2023-01-13T11:08:45.973Z,1.63
2023-01-13T11:11:25.263Z,1.40
2023-01-13T11:14:04.439Z,1.20
2023-01-13T11:16:32.448Z,1.20
2023-01-13T11:19:11.715Z,1.20
2023-01-13T11:21:40.927Z,1.60
2023-01-13T11:24:13.597Z,1.30
2023-01-13T11:26:44.687Z,1.40
2023-01-13T11:29:16.105Z,1.33
2023-01-13T11:31:47.137Z,1.27
2023-01-13T11:34:19.155Z,1.60
2023-01-13T11:36:48.638Z,1.30
2023-01-13T11:39:20.651Z,1.38
2023-01-13T11:42:10.231Z,2.05
2023-01-13T11:44:42.207Z,1.40
2023-01-13T11:47:11.488Z,2.10
2023-01-13T11:49:39.270Z,2.35
2023-01-13T11:52:09.660Z,2.17
2023-01-13T11:54:45.861Z,1.80
2023-01-13T11:57:23.869Z,1.20
2023-01-13T11:59:59.427Z,1.67
2023-01-13T12:02:33.772Z,1.40
2023-01-13T12:05:08.180Z,1.42
2023-01-13T12:07:39.912Z,1.42
2023-01-13T12:10:13.420Z,1.50
2023-01-13T12:12:48.807Z,1.30
2023-01-13T12:15:29.039Z,1.30
2023-01-13T12:18:06.378Z,1.20
2023-01-13T12:20:36.924Z,1.33
2023-01-13T12:23:08.529Z,1.35
2023-01-13T12:25:39.504Z,1.33
2023-01-13T12:28:13.252Z,1.40
2023-01-13T12:30:44.993Z,1.40
2023-01-13T12:33:18.694Z,1.13
2023-01-13T12:35:50.703Z,1.27
2023-01-13T12:38:21.368Z,1.27
2023-01-13T12:40:55.435Z,1.27
2023-01-13T12:43:34.847Z,1.23
2023-01-13T12:46:16.153Z,1.20
2023-01-13T12:49:04.845Z,1.17
2023-01-13T12:51:33.954Z,1.13
2023-01-13T12:54:02.126Z,1.17
2023-01-13T12:56:38.723Z,1.00
2023-01-13T12:59:21.365Z,2.00
2023-01-13T13:01:49.857Z,1.02
2023-01-13T13:04:20.084Z,1.02
2023-01-13T13:06:52.448Z,0.60
2023-01-13T13:09:22.472Z,0.90
2023-01-13T13:11:59.317Z,0.90
2023-01-13T13:14:41.982Z,0.70
2023-01-13T13:17:25.224Z,0.80
2023-01-13T13:19:54.177Z,0.90
2023-01-13T13:22:23.322Z,0.77
2023-01-13T13:25:05.734Z,0.90
2023-01-13T13:27:40.252Z,0.70
2023-01-13T13:30:14.216Z,0.80
2023-01-13T13:32:51.331Z,0.80
2023-01-13T13:35:27.417Z,0.70
2023-01-13T13:38:10.571Z,0.70
2023-01-13T13:40:51.721Z,0.70
2023-01-13T13:43:29.666Z,0.70
2023-01-13T13:46:12.151Z,0.80
2023-01-13T13:48:39.874Z,0.80
2023-01-13T13:51:22.111Z,0.77
2023-01-13T13:53:50.058Z,0.70
2023-01-13T13:56:19.436Z,0.70
2023-01-13T13:58:47.634Z,0.80
2023-01-13T14:01:20.238Z,0.70
2023-01-13T14:03:48.045Z,0.90
2023-01-13T14:06:23.607Z,0.80
2023-01-13T14:08:51.500Z,0.80
2023-01-13T14:11:26.307Z,0.73
2023-01-13T14:14:01.618Z,1.20
2023-01-13T14:16:29.225Z,0.80
2023-01-13T14:18:56.896Z,0.90
2023-01-13T14:21:27.202Z,1.00
2023-01-13T14:23:56.510Z,0.80
2023-01-13T14:26:25.127Z,1.23
2023-01-13T14:28:53.372Z,1.20
2023-01-13T14:31:21.222Z,0.73
2023-01-13T14:33:49.927Z,0.80
2023-01-13T14:36:18.965Z,1.00
2023-01-13T14:38:49.476Z,0.70
2023-01-13T14:41:19.525Z,0.97
2023-01-13T14:43:48.217Z,1.00
2023-01-13T14:46:17.595Z,0.93
2023-01-13T14:48:48.075Z,1.47
2023-01-13T14:51:22.565Z,1.00
2023-01-13T14:53:51.512Z,1.73
2023-01-13T14:56:31.165Z,1.30
2023-01-13T14:59:03.000Z,1.03
2023-01-13T15:01:36.227Z,0.80
2023-01-13T15:04:14.965Z,1.10
2023-01-13T15:06:46.576Z,0.80
2023-01-13T15:09:15.470Z,0.90
2023-01-13T15:11:43.273Z,0.70
2023-01-13T15:14:11.800Z,0.73
2023-01-13T15:16:39.381Z,0.80
2023-01-13T15:19:06.980Z,0.97
2023-01-13T15:21:35.119Z,0.80
2023-01-13T15:24:02.816Z,0.80
2023-01-13T15:26:34.109Z,0.93
2023-01-13T15:29:01.927Z,0.90
2023-01-13T15:31:29.884Z,0.90
2023-01-13T15:33:58.645Z,0.73
2023-01-13T15:36:27.966Z,0.80
2023-01-13T15:38:55.979Z,0.80
2023-01-13T15:41:37.627Z,0.70
2023-01-13T15:44:17.760Z,0.80
2023-01-13T15:46:46.023Z,0.90
2023-01-13T15:49:19.494Z,0.90
2023-01-13T15:51:47.414Z,1.00
2023-01-13T15:54:15.652Z,0.80
2023-01-13T15:56:43.433Z,0.80
2023-01-13T15:59:16.746Z,0.80
2023-01-13T16:01:44.845Z,0.90
2023-01-13T16:04:12.494Z,1.00
2023-01-13T16:06:40.109Z,0.80
2023-01-13T16:09:07.720Z,1.03
2023-01-13T16:11:35.370Z,1.03
2023-01-13T16:14:03.106Z,0.90
2023-01-13T16:16:32.044Z,0.90
2023-01-13T16:18:59.637Z,0.90
2023-01-13T16:21:27.252Z,0.90
2023-01-13T16:23:54.993Z,0.80
2023-01-13T16:26:24.094Z,0.80
2023-01-13T16:28:52.675Z,0.70
2023-01-13T16:31:23.892Z,0.80
2023-01-13T16:33:52.937Z,0.70
2023-01-13T16:36:21.924Z,0.70
2023-01-13T16:38:49.896Z,0.80
2023-01-13T16:41:17.667Z,0.90
2023-01-13T16:43:45.293Z,0.90
2023-01-13T16:46:21.498Z,0.80
2023-01-13T16:48:49.543Z,0.80
2023-01-13T16:51:18.499Z,0.80
2023-01-13T16:53:46.452Z,0.90
2023-01-13T16:56:16.952Z,0.70
2023-01-13T16:58:44.577Z,0.87
2023-01-13T17:01:17.337Z,1.27
2023-01-13T17:03:48.893Z,1.10
2023-01-13T17:06:18.171Z,1.00
2023-01-13T17:08:45.783Z,1.07
2023-01-13T17:11:13.753Z,1.40
2023-01-13T17:13:41.859Z,1.30
2023-01-13T17:16:15.994Z,1.20
2023-01-13T17:18:43.640Z,1.20
2023-01-13T17:21:11.346Z,1.63
2023-01-13T17:23:40.453Z,1.10
2023-01-13T17:26:08.019Z,1.50
2023-01-13T17:28:35.657Z,1.20
2023-01-13T17:31:03.280Z,1.70
2023-01-13T17:33:36.995Z,1.67
2023-01-13T17:36:05.567Z,1.60
2023-01-13T17:38:33.248Z,1.83
2023-01-13T17:41:04.727Z,1.60
2023-01-13T17:43:32.578Z,1.37
2023-01-13T17:46:00.566Z,1.20
2023-01-13T17:48:28.214Z,0.93
2023-01-13T17:50:56.319Z,1.10
2023-01-13T17:53:23.934Z,1.00
2023-01-13T17:55:52.275Z,1.00
2023-01-13T17:58:21.457Z,0.90
2023-01-13T18:00:49.473Z,0.80
2023-01-13T18:03:17.482Z,1.10
2023-01-13T18:05:46.932Z,1.00
2023-01-13T18:08:14.665Z,0.80
2023-01-13T18:10:42.280Z,1.07
2023-01-13T18:13:10.255Z,0.90
2023-01-13T18:15:39.166Z,1.20
2023-01-13T18:18:06.824Z,1.20
2023-01-13T18:20:44.844Z,1.37
2023-01-13T18:23:28.088Z,1.10
2023-01-13T18:26:06.076Z,1.03
2023-01-13T18:28:33.752Z,1.33
2023-01-13T18:31:02.811Z,1.17
2023-01-13T18:33:30.615Z,1.30
2023-01-13T18:35:58.299Z,1.20
2023-01-13T18:38:25.957Z,1.20
2023-01-13T18:40:53.628Z,1.30
2023-01-13T18:43:20.351Z,1.50
2023-01-13T18:45:50.764Z,1.40
2023-01-13T18:48:19.995Z,1.17
2023-01-13T18:50:47.694Z,1.00
2023-01-13T18:53:15.311Z,1.77
2023-01-13T18:55:43.329Z,1.70
2023-01-13T18:58:11.441Z,1.60
2023-01-13T19:00:39.398Z,1.50
2023-01-13T19:05:38.162Z,0.90
2023-01-13T19:08:06.354Z,1.00
2023-01-13T19:10:34.009Z,0.70
2023-01-13T19:13:02.308Z,0.80
2023-01-13T19:15:30.498Z,0.70
2023-01-13T19:17:58.387Z,0.80
2023-01-13T19:20:26.095Z,0.90
2023-01-13T19:22:55.239Z,0.70
2023-01-13T19:25:22.927Z,0.93
2023-01-13T19:27:50.627Z,0.70
2023-01-13T19:30:18.563Z,0.90
2023-01-13T19:32:46.148Z,0.80
2023-01-13T19:35:17.377Z,1.00
2023-01-13T19:37:45.743Z,0.70
2023-01-13T19:40:14.886Z,0.77
2023-01-13T19:42:55.397Z,0.80
2023-01-13T19:45:33.481Z,0.90
2023-01-13T19:48:04.573Z,0.70
2023-01-13T19:50:32.601Z,0.80
2023-01-13T19:53:00.336Z,0.80
2023-01-13T19:55:30.252Z,0.80
2023-01-13T19:57:57.927Z,0.80
2023-01-13T20:00:25.701Z,0.80
2023-01-13T20:02:56.285Z,0.70
2023-01-13T20:05:25.926Z,0.70
2023-01-13T20:07:54.120Z,0.70
2023-01-13T20:10:23.085Z,0.80
2023-01-13T20:12:52.121Z,0.90
2023-01-13T20:15:19.791Z,0.70
2023-01-13T20:17:47.402Z,0.73
2023-01-13T20:20:15.905Z,0.80
2023-01-13T20:22:43.621Z,0.90
2023-01-13T20:25:13.192Z,1.10
2023-01-13T20:27:41.282Z,0.80
2023-01-13T20:30:13.330Z,0.80
2023-01-13T20:32:41.112Z,0.90
2023-01-13T20:35:09.223Z,0.70
2023-01-13T20:37:37.773Z,0.80
2023-01-13T20:40:06.338Z,1.00
2023-01-13T20:42:42.294Z,0.83
2023-01-13T20:45:13.159Z,1.20
2023-01-13T20:47:40.757Z,1.10
2023-01-13T20:50:08.690Z,1.00
2023-01-13T20:52:37.496Z,1.03
2023-01-13T20:55:05.901Z,0.73
2023-01-13T20:57:33.656Z,0.87
2023-01-13T21:00:02.286Z,1.27
2023-01-13T21:02:32.518Z,0.80
2023-01-13T21:05:00.119Z,0.87
2023-01-13T21:07:28.228Z,0.90
2023-01-13T21:09:57.338Z,0.90
2023-01-13T21:12:35.154Z,0.90
2023-01-13T21:15:11.262Z,0.90
2023-01-13T21:17:48.286Z,0.87
2023-01-13T21:20:15.967Z,0.77
2023-01-13T21:22:45.341Z,0.70
2023-01-13T21:25:13.155Z,0.80
2023-01-13T21:27:40.991Z,1.00
2023-01-13T21:30:09.080Z,1.00
2023-01-13T21:32:36.689Z,0.80
2023-01-13T21:35:05.762Z,0.80
2023-01-13T21:37:33.511Z,1.00
2023-01-13T21:40:01.411Z,1.10
2023-01-13T21:42:38.943Z,0.90
2023-01-13T21:45:16.448Z,0.83
2023-01-13T21:47:51.993Z,0.90
2023-01-13T21:50:22.373Z,1.10
2023-01-13T21:52:52.196Z,0.90
2023-01-13T21:55:23.690Z,1.00
2023-01-13T21:57:52.033Z,0.97
2023-01-13T22:00:22.263Z,1.00
2023-01-13T22:02:50.364Z,0.93
2023-01-13T22:05:18.642Z,0.90
2023-01-13T22:07:47.619Z,1.10
2023-01-13T22:10:16.127Z,1.20
2023-01-13T22:12:44.153Z,1.00
2023-01-13T22:15:12.356Z,1.07
2023-01-13T22:17:41.015Z,1.20
2023-01-13T22:20:09.403Z,0.90
2023-01-13T22:22:37.491Z,0.90
2023-01-13T22:25:08.034Z,1.23
2023-01-13T22:27:40.122Z,1.27
2023-01-13T22:30:08.383Z,1.17
2023-01-13T22:32:36.786Z,1.10
2023-01-13T22:35:04.438Z,1.17
2023-01-13T22:37:31.998Z,0.97
2023-01-13T22:39:59.591Z,1.30
2023-01-13T22:42:28.548Z,0.87
2023-01-13T22:44:56.192Z,0.90
2023-01-13T22:47:23.852Z,0.87
2023-01-13T22:49:51.606Z,0.87
2023-01-13T22:52:19.363Z,0.80
2023-01-13T22:54:47.287Z,1.30
2023-01-13T22:57:14.896Z,0.97
2023-01-13T22:59:43.776Z,0.97
2023-01-13T23:02:11.388Z,1.10
2023-01-13T23:04:39.015Z,0.90
2023-01-13T23:07:06.632Z,1.40
2023-01-13T23:09:34.201Z,1.20
2023-01-13T23:12:01.779Z,0.93
2023-01-13T23:14:29.371Z,1.07
2023-01-13T23:16:58.268Z,1.10
2023-01-13T23:19:25.894Z,1.00
2023-01-13T23:21:53.495Z,1.40
2023-01-13T23:24:25.671Z,0.80
2023-01-13T23:26:53.445Z,0.80
2023-01-13T23:29:21.196Z,1.00
2023-01-13T23:31:48.885Z,0.87
2023-01-13T23:34:18.040Z,0.90
2023-01-13T23:36:45.699Z,0.70
2023-01-13T23:39:13.293Z,0.90
2023-01-13T23:41:40.996Z,0.90
2023-01-13T23:44:08.701Z,0.83
2023-01-13T23:46:36.411Z,0.90
2023-01-13T23:49:04.639Z,1.13
2023-01-13T23:51:33.627Z,0.90
2023-01-13T23:54:01.448Z,1.07
2023-01-13T23:56:30.069Z,1.00
2023-01-13T23:58:57.965Z,0.90
